Time;durP1;ratioP1;P1;durP2;ratioP2;P2;SDS_P1;SDS_P2;PMS_P1;PMS_P2;Temp;Humidity;BMP_temperature;BMP_pressure;BME280_temperature;BME280_humidity;BME280_pressure;Samples;Min_cycle;Max_cycle;Signal;HPM_P1;HPM_P2
2022/12/07 00:02:19;;;;;;;17.03;10.03;;;6.70;99.90;;;;;;5082416;28;20185;-64
2022/12/07 00:04:44;;;;;;;13.10;10.00;;;6.70;99.90;;;;;;5091484;28;20719;-64
2022/12/07 00:07:10;;;;;;;17.33;9.83;;;6.60;99.90;;;;;;5091332;28;20185;-64
2022/12/07 00:09:36;;;;;;;14.40;9.73;;;6.60;99.90;;;;;;5090515;28;20228;-64
2022/12/07 00:12:01;;;;;;;13.33;9.23;;;6.50;99.90;;;;;;5086274;28;20185;-64
2022/12/07 00:14:27;;;;;;;13.43;9.23;;;6.50;99.90;;;;;;5091031;28;20177;-64
2022/12/07 00:16:53;;;;;;;12.47;9.50;;;6.50;99.90;;;;;;5090636;28;20185;-64
2022/12/07 00:19:19;;;;;;;11.60;9.40;;;6.40;99.90;;;;;;5090860;28;20188;-64
2022/12/07 00:21:44;;;;;;;12.57;8.77;;;6.30;99.90;;;;;;5081613;28;20209;-64
2022/12/07 00:24:12;;;;;;;13.43;10.33;;;6.20;99.90;;;;;;5080121;28;20206;-64
2022/12/07 00:26:40;;;;;;;13.40;10.63;;;6.10;99.90;;;;;;5086856;28;20215;-64
2022/12/07 00:29:17;;;;;;;15.97;10.43;;;6.10;99.90;;;;;;5080353;28;20300;-64
2022/12/07 00:31:42;;;;;;;13.97;10.43;;;6.00;99.90;;;;;;5077534;28;20180;-64
2022/12/07 00:34:14;;;;;;;16.30;9.90;;;5.90;99.90;;;;;;5082322;28;20216;-64
2022/12/07 00:36:40;;;;;;;15.60;11.10;;;6.00;99.90;;;;;;5090943;28;20177;-65
2022/12/07 00:39:06;;;;;;;17.63;10.50;;;6.00;99.90;;;;;;5086869;28;20196;-64
2022/12/07 00:41:31;;;;;;;14.83;10.10;;;5.90;99.90;;;;;;5084322;28;20219;-64
2022/12/07 00:43:57;;;;;;;11.40;9.33;;;5.90;99.90;;;;;;5091161;28;20196;-64
2022/12/07 00:46:24;;;;;;;15.37;10.57;;;5.90;99.90;;;;;;5090464;28;20188;-64
2022/12/07 00:48:51;;;;;;;16.97;11.57;;;5.80;99.90;;;;;;5089445;28;20215;-64
2022/12/07 00:51:18;;;;;;;16.27;11.00;;;5.80;99.90;;;;;;5086175;28;20185;-64
2022/12/07 00:53:44;;;;;;;15.83;10.40;;;5.90;99.90;;;;;;5080567;28;20243;-64
2022/12/07 00:56:13;;;;;;;15.07;10.20;;;5.70;99.90;;;;;;5086539;28;20669;-65
2022/12/07 00:58:39;;;;;;;13.60;10.13;;;5.70;99.90;;;;;;5090800;28;20188;-65
2022/12/07 01:01:06;;;;;;;11.57;9.10;;;5.80;99.90;;;;;;5086943;28;20185;-65
2022/12/07 01:03:32;;;;;;;12.30;10.17;;;5.70;99.90;;;;;;5074896;28;20731;-65
2022/12/07 01:05:58;;;;;;;13.53;9.80;;;5.70;99.90;;;;;;5080900;28;20184;-64
2022/12/07 01:08:25;;;;;;;11.37;9.17;;;5.80;99.90;;;;;;5089548;28;20220;-64
2022/12/07 01:11:09;;;;;;;11.00;9.57;;;5.70;99.90;;;;;;5090431;28;20237;-64
2022/12/07 01:13:35;;;;;;;12.33;9.17;;;5.60;99.90;;;;;;5078321;28;20177;-64
2022/12/07 01:16:04;;;;;;;13.67;10.90;;;5.50;99.90;;;;;;5081338;28;20204;-64
2022/12/07 01:18:32;;;;;;;14.07;10.50;;;5.50;99.90;;;;;;5090538;28;20189;-64
2022/12/07 01:21:04;;;;;;;13.57;10.30;;;5.50;99.90;;;;;;5088913;28;20189;-64
2022/12/07 01:23:31;;;;;;;11.33;9.60;;;5.50;99.90;;;;;;5065939;28;20203;-63
2022/12/07 01:25:58;;;;;;;15.13;11.07;;;5.60;99.90;;;;;;5090618;28;20595;-64
2022/12/07 01:28:24;;;;;;;12.50;10.10;;;5.60;99.90;;;;;;5087048;28;20217;-64
2022/12/07 01:31:02;;;;;;;19.97;10.70;;;5.60;99.90;;;;;;5082864;28;20181;-63
2022/12/07 01:33:30;;;;;;;12.23;9.63;;;5.70;99.90;;;;;;5081261;28;20381;-64
2022/12/07 01:36:13;;;;;;;15.87;10.00;;;5.80;99.90;;;;;;5090404;28;20181;-64
2022/12/07 01:38:39;;;;;;;10.63;9.47;;;5.80;99.90;;;;;;5089590;28;20176;-64
2022/12/07 01:41:04;;;;;;;10.87;9.10;;;5.80;99.90;;;;;;5086725;28;20276;-64
2022/12/07 01:43:33;;;;;;;13.33;10.67;;;5.90;99.90;;;;;;5066899;28;20189;-64
2022/12/07 01:46:02;;;;;;;14.43;9.53;;;5.80;99.90;;;;;;5087894;28;20554;-64
2022/12/07 01:48:39;;;;;;;14.97;10.43;;;5.80;99.90;;;;;;5087120;28;20215;-64
2022/12/07 01:51:09;;;;;;;14.73;10.77;;;5.80;99.90;;;;;;5077949;28;20223;-64
2022/12/07 01:53:40;;;;;;;13.80;10.23;;;5.80;99.90;;;;;;5087924;28;20585;-64
2022/12/07 01:56:09;;;;;;;17.77;11.43;;;6.00;99.90;;;;;;5089480;28;20184;-64
2022/12/07 01:58:35;;;;;;;12.70;9.33;;;6.10;99.90;;;;;;5088747;28;20257;-64
2022/12/07 02:01:01;;;;;;;16.27;10.30;;;6.10;99.90;;;;;;5076086;28;20193;-64
2022/12/07 02:03:38;;;;;;;12.73;9.90;;;6.10;99.90;;;;;;5092507;28;20212;-64
2022/12/07 02:06:06;;;;;;;16.57;10.27;;;6.10;99.90;;;;;;5086458;28;20321;-64
2022/12/07 02:08:32;;;;;;;14.97;9.17;;;6.10;99.90;;;;;;5093585;28;20216;-64
2022/12/07 02:10:59;;;;;;;11.97;8.73;;;6.20;99.90;;;;;;5075497;28;20238;-64
2022/12/07 02:13:28;;;;;;;12.37;8.87;;;6.10;99.90;;;;;;5092358;28;20196;-63
2022/12/07 02:16:24;;;;;;;14.17;8.97;;;6.10;99.90;;;;;;5093578;28;20535;-64
2022/12/07 02:18:49;;;;;;;11.03;7.97;;;6.20;99.90;;;;;;5091953;28;20185;-64
2022/12/07 02:21:42;;;;;;;13.13;8.97;;;6.20;99.90;;;;;;5089732;28;20776;-63
2022/12/07 02:24:29;;;;;;;10.73;8.57;;;6.10;99.90;;;;;;5088162;28;20188;-64
2022/12/07 02:27:14;;;;;;;9.83;7.90;;;6.10;99.90;;;;;;5085862;28;20181;-63
2022/12/07 02:29:58;;;;;;;13.83;7.87;;;6.10;99.90;;;;;;5089878;28;20220;-63
2022/12/07 02:32:30;;;;;;;10.27;8.90;;;6.10;99.90;;;;;;5083783;28;20193;-63
2022/12/07 02:35:05;;;;;;;11.57;8.33;;;6.00;99.90;;;;;;5093108;28;20185;-64
2022/12/07 02:37:39;;;;;;;11.40;8.03;;;5.90;99.90;;;;;;5090979;28;20207;-63
2022/12/07 02:40:16;;;;;;;14.87;9.17;;;6.00;99.90;;;;;;5090812;28;20640;-64
2022/12/07 02:42:49;;;;;;;8.90;7.63;;;5.80;99.90;;;;;;5092962;28;20657;-65
2022/12/07 02:45:18;;;;;;;8.70;7.23;;;5.70;99.90;;;;;;5093370;28;20176;-65
2022/12/07 02:47:47;;;;;;;10.00;8.30;;;5.70;99.90;;;;;;5092689;28;20204;-65
2022/12/07 02:50:12;;;;;;;14.97;8.43;;;5.60;99.90;;;;;;5094717;28;20650;-65
2022/12/07 02:52:38;;;;;;;9.20;6.60;;;5.60;99.90;;;;;;5088380;28;20184;-65
2022/12/07 02:55:04;;;;;;;10.40;7.47;;;5.50;99.90;;;;;;5091053;28;20249;-64
2022/12/07 02:57:56;;;;;;;9.93;7.13;;;5.60;99.90;;;;;;5091426;28;20189;-64
2022/12/07 03:00:23;;;;;;;12.33;8.30;;;5.60;99.90;;;;;;5093015;28;20199;-64
2022/12/07 03:02:57;;;;;;;13.13;8.00;;;5.50;99.90;;;;;;5091172;28;20591;-64
2022/12/07 03:05:34;;;;;;;12.17;6.97;;;5.60;99.90;;;;;;5092625;28;20185;-64
2022/12/07 03:08:29;;;;;;;11.00;7.10;;;5.60;99.90;;;;;;5092671;28;20186;-64
2022/12/07 03:11:00;;;;;;;9.10;6.90;;;5.70;99.90;;;;;;5090539;28;20283;-64
2022/12/07 03:13:58;;;;;;;7.77;6.40;;;5.80;99.90;;;;;;5078582;28;20227;-64
2022/12/07 03:16:31;;;;;;;8.17;5.40;;;5.90;99.90;;;;;;5091308;28;20658;-64
2022/12/07 03:19:01;;;;;;;7.47;6.10;;;5.90;99.90;;;;;;5082478;28;20187;-64
2022/12/07 03:21:44;;;;;;;8.67;6.80;;;5.90;99.90;;;;;;5092824;28;20192;-64
2022/12/07 03:24:19;;;;;;;6.10;5.53;;;6.00;99.90;;;;;;5084581;28;20260;-64
2022/12/07 03:26:49;;;;;;;8.77;6.50;;;5.90;99.90;;;;;;5091619;28;20172;-64
2022/12/07 03:29:23;;;;;;;6.67;5.20;;;5.80;99.90;;;;;;5085560;28;20303;-64
2022/12/07 03:31:58;;;;;;;7.33;4.93;;;5.80;99.90;;;;;;5091959;28;20176;-64
2022/12/07 03:34:28;;;;;;;7.90;5.47;;;5.80;99.90;;;;;;5085589;28;20705;-64
2022/12/07 03:37:10;;;;;;;6.37;5.10;;;5.90;99.90;;;;;;5078402;28;20204;-64
2022/12/07 03:40:00;;;;;;;4.97;4.47;;;5.90;99.90;;;;;;5084653;28;20242;-63
2022/12/07 03:42:26;;;;;;;8.60;5.20;;;5.70;99.90;;;;;;5079622;28;20623;-63
2022/12/07 03:44:53;;;;;;;6.17;5.23;;;5.70;99.90;;;;;;5091072;28;20195;-63
2022/12/07 03:47:37;;;;;;;5.90;4.70;;;5.60;99.90;;;;;;5090986;28;20201;-63
2022/12/07 03:50:21;;;;;;;8.57;4.93;;;5.50;99.90;;;;;;5084393;28;20205;-63
2022/12/07 03:53:02;;;;;;;5.43;4.93;;;5.30;99.90;;;;;;5091196;28;20264;-63
2022/12/07 03:55:34;;;;;;;7.40;5.20;;;5.40;99.90;;;;;;5078606;28;20681;-63
2022/12/07 03:58:07;;;;;;;5.93;5.03;;;5.40;99.90;;;;;;5083932;28;20534;-63
2022/12/07 04:00:33;;;;;;;7.43;4.30;;;5.40;99.90;;;;;;5087034;28;20208;-63
2022/12/07 04:02:58;;;;;;;9.10;5.87;;;5.40;99.90;;;;;;5072269;28;20215;-64
2022/12/07 04:05:25;;;;;;;7.27;5.77;;;5.50;99.90;;;;;;5084466;28;20654;-63
2022/12/07 04:07:50;;;;;;;6.80;5.07;;;5.50;99.90;;;;;;5091309;28;20733;-64
2022/12/07 04:10:17;;;;;;;7.50;5.23;;;5.40;99.90;;;;;;5083209;28;20270;-63
2022/12/07 04:12:42;;;;;;;10.83;5.13;;;5.50;99.90;;;;;;5091305;28;20177;-63
2022/12/07 04:15:09;;;;;;;6.57;5.77;;;5.40;99.90;;;;;;5079878;28;20303;-64
2022/12/07 04:17:34;;;;;;;11.17;5.57;;;5.30;99.90;;;;;;5071525;28;20607;-64
2022/12/07 04:20:01;;;;;;;7.50;5.80;;;5.30;99.90;;;;;;5091285;28;20193;-64
2022/12/07 04:22:26;;;;;;;8.30;5.80;;;5.20;99.90;;;;;;5090653;28;20208;-63
2022/12/07 04:24:52;;;;;;;9.47;6.17;;;5.00;99.90;;;;;;5069677;28;20189;-63
2022/12/07 04:27:18;;;;;;;7.63;6.30;;;5.00;99.90;;;;;;5089021;28;20188;-63
2022/12/07 04:29:43;;;;;;;9.30;6.83;;;5.10;99.90;;;;;;5084223;28;20297;-63
2022/12/07 04:32:09;;;;;;;8.07;6.37;;;5.20;99.90;;;;;;5088783;28;20254;-63
2022/12/07 04:34:35;;;;;;;10.33;6.30;;;5.20;99.90;;;;;;5089761;28;20607;-63
2022/12/07 04:37:00;;;;;;;8.20;6.37;;;5.20;99.90;;;;;;5074714;28;20185;-63
2022/12/07 04:39:31;;;;;;;11.23;7.23;;;5.30;99.90;;;;;;5079674;28;20250;-63
2022/12/07 04:41:57;;;;;;;10.07;6.27;;;5.30;99.90;;;;;;5091258;28;20196;-63
2022/12/07 04:44:24;;;;;;;9.07;7.17;;;5.30;99.90;;;;;;5089665;28;20220;-64
2022/12/07 04:46:51;;;;;;;7.77;6.97;;;5.30;99.90;;;;;;5090414;28;20188;-63
2022/12/07 04:49:17;;;;;;;7.47;6.10;;;5.40;99.90;;;;;;5089839;28;20804;-64
2022/12/07 04:51:43;;;;;;;10.60;7.03;;;5.40;99.90;;;;;;5078405;28;20182;-64
2022/12/07 04:54:09;;;;;;;12.20;6.03;;;5.40;99.90;;;;;;5079862;28;20652;-63
2022/12/07 04:56:35;;;;;;;11.00;7.03;;;5.30;99.90;;;;;;5089831;28;20306;-62
2022/12/07 04:59:02;;;;;;;9.30;6.90;;;5.30;99.90;;;;;;5082456;28;20195;-63
2022/12/07 05:01:28;;;;;;;8.03;6.27;;;5.20;99.90;;;;;;5087927;28;20702;-63
2022/12/07 05:03:54;;;;;;;7.70;7.03;;;5.20;99.90;;;;;;5087228;28;20311;-63
2022/12/07 05:06:19;;;;;;;12.07;7.13;;;5.10;99.90;;;;;;5077338;28;20188;-63
2022/12/07 05:08:45;;;;;;;8.63;6.87;;;5.10;99.90;;;;;;5089767;28;20301;-63
2022/12/07 05:13:57;;;;;;;12.63;7.80;;;5.10;99.90;;;;;;5090810;28;20288;-63
2022/12/07 05:16:22;;;;;;;11.97;8.00;;;5.10;99.90;;;;;;5086541;28;20189;-63
2022/12/07 05:18:48;;;;;;;7.53;6.83;;;5.20;99.90;;;;;;5083996;28;20707;-63
2022/12/07 05:21:14;;;;;;;10.53;7.63;;;5.30;99.90;;;;;;5087042;28;20279;-64
2022/12/07 05:23:39;;;;;;;11.87;7.30;;;5.30;99.90;;;;;;5084118;28;20197;-65
2022/12/07 05:26:05;;;;;;;12.13;7.73;;;5.30;99.90;;;;;;5090588;28;20188;-65
2022/12/07 05:28:30;;;;;;;11.10;7.33;;;5.20;99.90;;;;;;5087907;28;20216;-65
2022/12/07 05:30:56;;;;;;;9.87;6.70;;;5.20;99.90;;;;;;5079656;28;20225;-66
2022/12/07 05:33:22;;;;;;;11.27;8.57;;;5.20;99.90;;;;;;5081653;28;20189;-65
2022/12/07 05:35:47;;;;;;;12.83;8.37;;;5.20;99.90;;;;;;5078641;28;20674;-65
2022/12/07 05:38:13;;;;;;;11.17;8.37;;;5.20;99.90;;;;;;5083669;28;20655;-65
2022/12/07 05:40:39;;;;;;;12.60;7.57;;;5.20;99.90;;;;;;5093647;28;20553;-62
2022/12/07 05:43:04;;;;;;;9.57;7.30;;;5.30;99.90;;;;;;5084657;28;20178;-64
2022/12/07 05:45:30;;;;;;;13.43;7.63;;;5.40;99.90;;;;;;5088191;28;20657;-65
2022/12/07 05:47:55;;;;;;;8.20;6.70;;;5.40;99.90;;;;;;5093611;28;20242;-65
2022/12/07 05:50:21;;;;;;;9.30;7.13;;;5.50;99.90;;;;;;5093152;28;20223;-65
2022/12/07 05:52:47;;;;;;;11.03;6.83;;;5.40;99.90;;;;;;5090847;28;20192;-64
2022/12/07 05:55:13;;;;;;;10.60;8.20;;;5.50;99.90;;;;;;5088617;28;20189;-64
2022/12/07 05:57:38;;;;;;;8.13;7.27;;;5.60;99.90;;;;;;5092535;28;20647;-62
2022/12/07 06:00:05;;;;;;;8.27;7.20;;;5.70;99.90;;;;;;5073329;28;20642;-63
2022/12/07 06:02:30;;;;;;;11.20;7.47;;;5.80;99.90;;;;;;5088693;28;20683;-65
2022/12/07 06:04:56;;;;;;;10.23;7.67;;;5.80;99.90;;;;;;5093032;28;20203;-65
2022/12/07 06:07:22;;;;;;;13.20;8.40;;;5.80;99.90;;;;;;5092571;28;20185;-65
2022/12/07 06:09:47;;;;;;;8.67;7.43;;;5.70;99.90;;;;;;5076513;28;20217;-65
2022/12/07 06:14:58;;;;;;;8.37;7.47;;;5.70;99.90;;;;;;5085272;28;20204;-65
2022/12/07 06:17:24;;;;;;;10.83;6.77;;;5.70;99.90;;;;;;5085584;28;20591;-67
2022/12/07 06:19:50;;;;;;;10.13;8.20;;;5.70;99.90;;;;;;5094194;28;20190;-64
2022/12/07 06:22:16;;;;;;;9.00;6.97;;;5.70;99.90;;;;;;5091246;28;20196;-65
2022/12/07 06:24:42;;;;;;;9.20;6.53;;;5.80;99.90;;;;;;5085609;28;20220;-65
2022/12/07 06:27:08;;;;;;;16.87;9.50;;;5.80;99.90;;;;;;5092159;28;20181;-64
2022/12/07 06:29:34;;;;;;;16.30;8.93;;;5.70;99.90;;;;;;5091693;28;20224;-64
2022/12/07 06:32:00;;;;;;;10.97;8.10;;;5.60;99.90;;;;;;5084920;28;20196;-64
2022/12/07 06:34:26;;;;;;;15.27;7.23;;;5.60;99.90;;;;;;5087279;28;20189;-64
2022/12/07 06:36:54;;;;;;;12.50;7.63;;;5.60;99.90;;;;;;5091382;28;20639;-64
2022/12/07 06:39:23;;;;;;;11.37;8.33;;;5.60;99.90;;;;;;5093616;28;20189;-64
2022/12/07 06:41:51;;;;;;;7.30;6.30;;;5.60;99.90;;;;;;5090859;28;20184;-64
2022/12/07 06:44:17;;;;;;;12.00;7.77;;;5.60;99.90;;;;;;5092859;28;20181;-64
2022/12/07 06:46:43;;;;;;;9.17;6.37;;;5.60;99.90;;;;;;5091845;28;20185;-64
2022/12/07 06:49:09;;;;;;;10.30;7.53;;;5.60;99.90;;;;;;5091528;28;20220;-63
2022/12/07 06:51:40;;;;;;;11.13;7.27;;;5.60;99.90;;;;;;5091778;28;20264;-64
2022/12/07 06:54:07;;;;;;;13.00;8.00;;;5.70;99.90;;;;;;5092909;28;20185;-63
2022/12/07 06:56:32;;;;;;;9.73;7.07;;;6.00;99.90;;;;;;5084672;28;20734;-63
2022/12/07 06:58:58;;;;;;;9.77;6.90;;;5.90;99.90;;;;;;5082554;28;20280;-63
2022/12/07 07:01:24;;;;;;;8.77;6.43;;;5.60;99.90;;;;;;5086617;28;20193;-63
2022/12/07 07:03:49;;;;;;;9.23;7.20;;;5.60;99.90;;;;;;5090433;28;20196;-63
2022/12/07 07:06:15;;;;;;;6.77;6.03;;;5.60;99.90;;;;;;5061556;28;20188;-63
2022/12/07 07:08:41;;;;;;;8.50;7.00;;;5.50;99.90;;;;;;5092422;28;20690;-63
2022/12/07 07:11:08;;;;;;;10.50;6.93;;;5.50;99.90;;;;;;5092407;28;20238;-63
2022/12/07 07:13:34;;;;;;;7.73;6.50;;;5.50;99.90;;;;;;5093291;28;20173;-64
2022/12/07 07:16:00;;;;;;;14.37;7.20;;;5.40;99.90;;;;;;5091654;28;20231;-64
2022/12/07 07:18:26;;;;;;;8.77;6.30;;;5.40;99.90;;;;;;5092420;28;20223;-64
2022/12/07 07:20:52;;;;;;;10.47;7.43;;;5.40;99.90;;;;;;5092221;28;20197;-64
2022/12/07 07:23:18;;;;;;;11.17;7.00;;;5.40;99.90;;;;;;5091017;28;20195;-64
2022/12/07 07:25:45;;;;;;;13.43;8.30;;;5.60;99.90;;;;;;5079946;28;20181;-64
2022/12/07 07:28:11;;;;;;;9.53;7.53;;;5.80;99.90;;;;;;5101977;28;20627;-64
2022/12/07 07:30:36;;;;;;;8.83;6.43;;;5.60;99.90;;;;;;5091286;28;20227;-64
2022/12/07 07:33:03;;;;;;;9.73;6.50;;;5.60;99.90;;;;;;5084844;28;20196;-64
2022/12/07 07:35:30;;;;;;;9.03;7.23;;;5.50;99.90;;;;;;5077900;28;20189;-64
2022/12/07 07:37:56;;;;;;;8.70;7.27;;;5.50;99.90;;;;;;5092344;28;20196;-65
2022/12/07 07:40:23;;;;;;;9.33;6.83;;;5.30;99.90;;;;;;5090430;28;20185;-64
2022/12/07 07:42:50;;;;;;;12.03;7.47;;;5.30;99.90;;;;;;5089800;28;20193;-64
2022/12/07 07:45:18;;;;;;;9.97;7.17;;;5.30;99.90;;;;;;5090361;28;20177;-64
2022/12/07 07:47:43;;;;;;;10.67;7.80;;;5.10;99.90;;;;;;5092016;28;20216;-64
2022/12/07 07:50:10;;;;;;;11.00;7.13;;;5.20;99.90;;;;;;5080467;28;20240;-64
2022/12/07 07:52:35;;;;;;;11.63;7.57;;;5.10;99.90;;;;;;5091090;28;20185;-64
2022/12/07 07:55:01;;;;;;;11.03;7.57;;;5.20;99.90;;;;;;5090083;28;20207;-64
2022/12/07 07:57:27;;;;;;;12.37;7.50;;;5.10;99.90;;;;;;5086794;28;20239;-64
2022/12/07 07:59:53;;;;;;;11.90;7.80;;;5.10;99.90;;;;;;5085067;28;20193;-65
2022/12/07 08:02:22;;;;;;;13.80;7.53;;;5.10;99.90;;;;;;5090030;28;20262;-63
2022/12/07 08:04:48;;;;;;;8.90;7.20;;;5.00;99.90;;;;;;5086412;28;20643;-63
2022/12/07 08:07:14;;;;;;;9.13;6.63;;;5.00;99.90;;;;;;5073482;28;20196;-63
2022/12/07 08:09:40;;;;;;;10.37;7.30;;;4.90;99.90;;;;;;5089571;28;20583;-63
2022/12/07 08:12:06;;;;;;;15.23;6.83;;;4.90;99.90;;;;;;5090335;28;20199;-63
2022/12/07 08:14:32;;;;;;;11.33;7.67;;;5.00;99.90;;;;;;5090674;28;20295;-63
2022/12/07 08:16:58;;;;;;;10.07;7.07;;;5.00;99.90;;;;;;5084794;28;20234;-64
2022/12/07 08:19:24;;;;;;;7.97;6.90;;;5.00;99.90;;;;;;5090710;28;20185;-64
2022/12/07 08:21:50;;;;;;;8.07;7.27;;;5.10;99.90;;;;;;5091255;28;20200;-64
2022/12/07 08:24:16;;;;;;;8.80;6.93;;;5.10;99.90;;;;;;5086354;28;20279;-64
2022/12/07 08:26:41;;;;;;;14.77;7.77;;;5.00;99.90;;;;;;5091287;28;20212;-64
2022/12/07 08:29:07;;;;;;;7.20;6.20;;;5.00;99.90;;;;;;5084913;28;20213;-64
2022/12/07 08:31:33;;;;;;;12.80;7.17;;;5.00;99.90;;;;;;5079071;28;20193;-63
2022/12/07 08:33:59;;;;;;;8.97;6.20;;;5.00;99.90;;;;;;5078122;28;20234;-64
2022/12/07 08:36:25;;;;;;;15.47;8.70;;;5.10;99.90;;;;;;5080296;28;20273;-64
2022/12/07 08:38:50;;;;;;;10.70;8.20;;;5.10;99.90;;;;;;5090763;28;20196;-64
2022/12/07 08:41:16;;;;;;;10.83;6.83;;;5.30;99.90;;;;;;5090799;28;20196;-64
2022/12/07 08:43:42;;;;;;;9.57;7.57;;;5.40;99.90;;;;;;5088609;28;20193;-64
2022/12/07 08:46:33;;;;;;;8.40;6.73;;;5.40;99.90;;;;;;5087629;28;20185;-64
2022/12/07 08:49:32;;;;;;;6.73;6.07;;;5.50;99.90;;;;;;5079451;28;20543;-64
2022/12/07 08:51:58;;;;;;;9.90;8.33;;;5.80;99.90;;;;;;5075333;28;20216;-64
2022/12/07 08:54:24;;;;;;;14.57;8.13;;;6.00;99.90;;;;;;5091023;28;20631;-64
2022/12/07 08:56:51;;;;;;;9.13;6.73;;;6.10;99.90;;;;;;5081836;28;20199;-64
2022/12/07 08:59:19;;;;;;;8.93;7.27;;;6.20;99.90;;;;;;5089185;28;20192;-64
2022/12/07 09:01:44;;;;;;;7.90;7.10;;;6.30;99.90;;;;;;5090760;28;20187;-64
2022/12/07 09:04:11;;;;;;;9.17;6.33;;;6.40;99.90;;;;;;5089237;28;20570;-64
2022/12/07 09:06:36;;;;;;;7.87;6.17;;;6.50;99.90;;;;;;5091142;28;20249;-64
2022/12/07 09:09:03;;;;;;;8.07;5.97;;;6.60;99.90;;;;;;5089996;28;20208;-64
2022/12/07 09:11:29;;;;;;;9.83;7.17;;;6.70;99.90;;;;;;5093512;28;20230;-64
2022/12/07 09:13:55;;;;;;;9.27;6.13;;;6.70;99.90;;;;;;5084758;28;20201;-64
2022/12/07 09:16:21;;;;;;;8.93;6.23;;;6.80;99.90;;;;;;5107510;28;20238;-64
2022/12/07 09:18:47;;;;;;;9.00;6.80;;;6.90;99.90;;;;;;5094704;28;20188;-64
2022/12/07 09:21:12;;;;;;;7.97;6.03;;;7.00;99.90;;;;;;5094549;28;20253;-64
2022/12/07 09:23:38;;;;;;;11.13;7.37;;;7.00;99.90;;;;;;5082870;28;20219;-64
2022/12/07 09:26:04;;;;;;;7.93;6.50;;;6.90;99.90;;;;;;5093033;28;20212;-64
2022/12/07 09:28:31;;;;;;;7.70;5.90;;;6.90;99.90;;;;;;5094547;28;20234;-64
2022/12/07 09:30:57;;;;;;;8.93;6.37;;;6.90;99.90;;;;;;5091213;28;20239;-64
2022/12/07 09:33:23;;;;;;;8.27;6.40;;;7.00;99.90;;;;;;5083428;28;20204;-64
2022/12/07 09:35:49;;;;;;;7.77;6.40;;;6.80;99.90;;;;;;5094477;28;20176;-64
2022/12/07 09:38:16;;;;;;;9.67;7.30;;;6.90;99.90;;;;;;5061843;28;20267;-64
2022/12/07 09:40:45;;;;;;;10.17;6.33;;;6.80;99.90;;;;;;5092766;28;20585;-64
2022/12/07 09:43:16;;;;;;;10.33;6.33;;;6.90;99.90;;;;;;5094034;28;20180;-64
2022/12/07 09:45:42;;;;;;;10.20;6.67;;;6.90;99.90;;;;;;5092014;28;20192;-64
2022/12/07 09:48:19;;;;;;;16.23;7.40;;;6.90;99.90;;;;;;5085001;28;20196;-64
2022/12/07 09:50:46;;;;;;;8.33;6.97;;;7.10;99.90;;;;;;5092733;28;20296;-64
2022/12/07 09:53:36;;;;;;;13.03;7.00;;;7.10;99.90;;;;;;5058768;28;20272;-64
2022/12/07 09:56:03;;;;;;;8.30;6.83;;;7.20;99.90;;;;;;5093744;28;20208;-64
2022/12/07 09:58:30;;;;;;;9.87;6.93;;;7.10;99.90;;;;;;5094146;28;20260;-64
2022/12/07 10:01:17;;;;;;;9.63;7.07;;;7.20;99.90;;;;;;5084933;28;20188;-64
2022/12/07 10:03:53;;;;;;;12.97;6.60;;;7.40;99.90;;;;;;5082126;28;20192;-64
2022/12/07 10:06:19;;;;;;;7.77;6.60;;;7.50;99.90;;;;;;5089172;28;20204;-64
2022/12/07 10:08:44;;;;;;;9.17;6.80;;;7.90;99.90;;;;;;5080886;28;20731;-64
2022/12/07 10:11:11;;;;;;;9.30;6.63;;;7.70;99.90;;;;;;5090910;28;20284;-65
2022/12/07 10:13:42;;;;;;;11.17;7.17;;;7.50;99.90;;;;;;5093905;28;20181;-63
2022/12/07 10:16:34;;;;;;;7.00;6.30;;;7.60;99.90;;;;;;5080234;28;20209;-64
2022/12/07 10:19:24;;;;;;;11.57;6.17;;;7.60;99.90;;;;;;5084281;28;20177;-63
2022/12/07 10:22:12;;;;;;;7.03;5.83;;;7.80;99.90;;;;;;5081695;28;20196;-64
2022/12/07 10:24:40;;;;;;;8.77;7.27;;;7.70;99.90;;;;;;5093491;28;20200;-64
2022/12/07 10:27:17;;;;;;;11.50;6.20;;;7.60;99.90;;;;;;5086617;28;20181;-64
2022/12/07 10:29:49;;;;;;;12.17;7.70;;;7.60;99.90;;;;;;5092303;28;20208;-63
2022/12/07 10:32:15;;;;;;;14.70;7.33;;;7.40;99.90;;;;;;5093312;28;20194;-64
2022/12/07 10:34:41;;;;;;;16.60;8.53;;;7.50;99.90;;;;;;5093471;28;20564;-63
2022/12/07 10:37:16;;;;;;;10.70;7.83;;;7.40;99.90;;;;;;5091418;28;20181;-64
2022/12/07 10:39:47;;;;;;;11.97;7.73;;;7.50;99.90;;;;;;5087881;28;20199;-66
2022/12/07 10:42:25;;;;;;;13.57;7.90;;;7.60;99.90;;;;;;5080962;28;20185;-63
2022/12/07 10:45:17;;;;;;;9.37;7.33;;;7.90;99.90;;;;;;5086934;28;20181;-66
2022/12/07 10:47:58;;;;;;;19.60;10.20;;;7.90;99.90;;;;;;5096273;28;20685;-66
2022/12/07 10:50:42;;;;;;;19.43;9.77;;;8.00;99.90;;;;;;5092665;28;20242;-66
2022/12/07 10:53:46;;;;;;;13.67;10.03;;;7.90;99.90;;;;;;5091762;28;20246;-65
2022/12/07 10:56:33;;;;;;;15.53;8.83;;;8.00;99.90;;;;;;5083700;28;20180;-65
2022/12/07 10:59:30;;;;;;;19.17;9.80;;;8.00;99.90;;;;;;5079660;28;20598;-65
2022/12/07 11:02:15;;;;;;;20.03;9.27;;;8.00;99.90;;;;;;5093281;28;20190;-65
2022/12/07 11:05:09;;;;;;;17.10;7.53;;;8.20;99.90;;;;;;5103685;28;20318;-65
2022/12/07 11:07:54;;;;;;;15.23;7.07;;;8.20;99.90;;;;;;5016346;28;20271;-66
2022/12/07 11:11:04;;;;;;;10.10;7.03;;;8.10;99.90;;;;;;5092703;28;20208;-64
2022/12/07 11:13:48;;;;;;;11.40;7.07;;;8.30;99.90;;;;;;5065756;28;20212;-64
2022/12/07 11:16:45;;;;;;;7.97;6.77;;;8.20;99.90;;;;;;5092690;28;20272;-65
2022/12/07 11:19:30;;;;;;;8.47;6.97;;;8.30;99.90;;;;;;5086396;28;20659;-65
2022/12/07 11:22:11;;;;;;;6.83;6.03;;;8.30;99.90;;;;;;5092303;28;20216;-64
2022/12/07 11:24:42;;;;;;;6.50;5.33;;;8.40;99.90;;;;;;5091768;28;20699;-64
2022/12/07 11:27:33;;;;;;;9.20;6.70;;;8.20;99.90;;;;;;5083225;28;20199;-65
2022/12/07 11:30:18;;;;;;;8.90;5.87;;;8.00;99.90;;;;;;5082046;28;20216;-66
2022/12/07 11:33:25;;;;;;;8.63;5.70;;;8.00;99.90;;;;;;5088343;28;20542;-66
2022/12/07 11:35:57;;;;;;;7.57;6.13;;;8.00;99.90;;;;;;5085076;28;20229;-66
2022/12/07 11:38:34;;;;;;;9.00;6.33;;;8.00;99.90;;;;;;5083465;28;20191;-66
2022/12/07 11:41:12;;;;;;;7.07;5.93;;;8.20;99.90;;;;;;5091803;28;20176;-66
2022/12/07 11:43:50;;;;;;;7.77;5.57;;;8.30;99.90;;;;;;5092086;28;20172;-66
2022/12/07 11:46:17;;;;;;;5.67;5.07;;;8.10;99.90;;;;;;5090605;28;20187;-66
2022/12/07 11:49:03;;;;;;;5.30;4.80;;;8.00;99.90;;;;;;5078003;28;20279;-66
2022/12/07 11:51:32;;;;;;;7.77;5.77;;;8.00;99.90;;;;;;5092052;28;20196;-66
2022/12/07 11:54:04;;;;;;;7.90;5.57;;;8.30;99.90;;;;;;5088239;28;20192;-66
2022/12/07 11:56:36;;;;;;;9.53;5.57;;;8.50;99.90;;;;;;5096112;28;20192;-66
2022/12/07 11:59:43;;;;;;;7.63;5.17;;;8.70;99.90;;;;;;5103043;28;20693;-66
2022/12/07 12:02:16;;;;;;;5.83;5.23;;;8.70;99.90;;;;;;5040915;28;20406;-66
2022/12/07 12:04:55;;;;;;;7.83;5.20;;;8.60;99.90;;;;;;5086471;28;20226;-66
2022/12/07 12:07:24;;;;;;;7.80;4.77;;;8.50;99.90;;;;;;5089991;28;20176;-66
2022/12/07 12:10:00;;;;;;;5.80;4.03;;;8.40;99.90;;;;;;5077812;28;20208;-66
2022/12/07 12:12:25;;;;;;;4.60;4.17;;;8.40;99.90;;;;;;5091477;28;20202;-66
2022/12/07 12:15:23;;;;;;;5.07;3.80;;;8.40;99.90;;;;;;5091384;28;20267;-66
2022/12/07 12:18:07;;;;;;;3.63;3.33;;;8.40;99.90;;;;;;5090586;28;20723;-66
2022/12/07 12:20:37;;;;;;;5.87;4.23;;;8.30;99.90;;;;;;5091239;28;20191;-66
2022/12/07 12:23:21;;;;;;;10.03;4.10;;;8.30;99.90;;;;;;5091201;28;20192;-66
2022/12/07 12:25:59;;;;;;;7.97;4.23;;;8.40;99.90;;;;;;5082209;28;20397;-68
2022/12/07 12:28:33;;;;;;;7.07;3.37;;;8.60;99.90;;;;;;5078260;28;20667;-66
2022/12/07 12:31:28;;;;;;;6.77;3.67;;;8.60;99.90;;;;;;5091261;28;20189;-66
2022/12/07 12:33:59;;;;;;;6.27;3.23;;;8.60;99.90;;;;;;5067568;28;20247;-66
2022/12/07 12:36:25;;;;;;;5.57;3.50;;;8.50;99.90;;;;;;5090993;28;20176;-66
2022/12/07 12:39:06;;;;;;;5.03;3.67;;;8.60;99.90;;;;;;5090038;28;20643;-64
2022/12/07 12:41:39;;;;;;;5.63;3.17;;;8.60;99.90;;;;;;5079606;28;20216;-64
2022/12/07 12:44:19;;;;;;;5.60;4.27;;;8.50;99.90;;;;;;5084805;28;20730;-64
2022/12/07 12:46:46;;;;;;;6.93;4.30;;;8.70;99.90;;;;;;5088013;28;20180;-65
2022/12/07 12:49:17;;;;;;;5.47;3.67;;;8.70;99.90;;;;;;5087443;28;20634;-65
2022/12/07 12:51:51;;;;;;;5.70;4.10;;;8.80;99.90;;;;;;5083105;28;20196;-65
2022/12/07 12:54:32;;;;;;;6.03;3.83;;;8.90;99.90;;;;;;5080289;28;20189;-64
2022/12/07 12:57:08;;;;;;;3.60;3.20;;;9.00;99.90;;;;;;5090416;28;20183;-64
2022/12/07 12:59:47;;;;;;;3.00;2.27;;;8.80;99.90;;;;;;5090470;28;20212;-65
2022/12/07 13:02:28;;;;;;;6.00;2.23;;;8.60;99.90;;;;;;5088843;28;20192;-65
2022/12/07 13:05:21;;;;;;;5.10;2.80;;;8.70;99.90;;;;;;5089018;28;20257;-65
2022/12/07 13:07:46;;;;;;;5.83;3.57;;;8.70;99.90;;;;;;5089353;28;20184;-65
2022/12/07 13:10:39;;;;;;;6.67;3.80;;;8.70;99.90;;;;;;5090271;28;20208;-65
2022/12/07 13:13:11;;;;;;;4.03;2.70;;;8.60;99.90;;;;;;5066200;28;20313;-65
2022/12/07 13:15:38;;;;;;;2.13;2.03;;;8.70;99.90;;;;;;5082633;28;20545;-64
2022/12/07 13:18:26;;;;;;;3.40;2.73;;;8.70;99.90;;;;;;5088301;28;20582;-65